Terminal Aerodrome Forecast
Issued by NWS

Home | Current Version | Previous Version | Text Only | Print | Product List | Glossary On
Versions: 1 2 3 4 5 6 7 8 9 10 11 12
000
FTUS42 TJSJ 020000 RRA
TAFIST
TAF
TIST 020021Z 0200/0224 10012KT P6SM FEW025
      TEMPO 0205/0209 VRB06G25KT -RA BKN015
     FM021000 09020G30KT P6SM TSRA SCT020CB
     FM022300 11015KT P6SM SCT025 SCT050=

USA.gov is the U.S. government's official web portal to all federal, state and local government web resources and services.